sensor_id;sensor_type;location;lat;lon;timestamp;P1;P2;P0
82815;PMS5003;72570;46.826;-71.244;2023-12-20T00:00:56;0;0;0
82815;PMS5003;72570;46.826;-71.244;2023-12-20T00:03:20;0;0;0
82815;PMS5003;72570;46.826;-71.244;2023-12-20T00:05:47;0.76;0.76;0
82815;PMS5003;72570;46.826;-71.244;2023-12-20T00:08:10;0.27;0.14;0
82815;PMS5003;72570;46.826;-71.244;2023-12-20T00:10:35;0;0;0
82815;PMS5003;72570;46.826;-71.244;2023-12-20T00:13:02;0;0;0
82815;PMS5003;72570;46.826;-71.244;2023-12-20T00:15:26;2.1;0.1;0
82815;PMS5003;72570;46.826;-71.244;2023-12-20T00:17:52;0;0;0
82815;PMS5003;72570;46.826;-71.244;2023-12-20T00:20:17;0.33;0;0
82815;PMS5003;72570;46.826;-71.244;2023-12-20T00:22:45;0.81;0.81;0
82815;PMS5003;72570;46.826;-71.244;2023-12-20T00:25:10;0;0;0
82815;PMS5003;72570;46.826;-71.244;2023-12-20T00:27:35;0;0;0
82815;PMS5003;72570;46.826;-71.244;2023-12-20T00:30:01;0.48;0.48;0
82815;PMS5003;72570;46.826;-71.244;2023-12-20T00:32:27;0;0;0
82815;PMS5003;72570;46.826;-71.244;2023-12-20T00:34:51;0.62;0.62;0
82815;PMS5003;72570;46.826;-71.244;2023-12-20T00:37:18;0.33;0;0
82815;PMS5003;72570;46.826;-71.244;2023-12-20T00:39:42;0.67;0.67;0
82815;PMS5003;72570;46.826;-71.244;2023-12-20T00:42:08;0;0;0
82815;PMS5003;72570;46.826;-71.244;2023-12-20T00:44:34;0.1;0.1;0
82815;PMS5003;72570;46.826;-71.244;2023-12-20T00:46:59;0;0;0
82815;PMS5003;72570;46.826;-71.244;2023-12-20T00:49:25;1;1;0
82815;PMS5003;72570;46.826;-71.244;2023-12-20T00:51:49;1.19;0.52;0
82815;PMS5003;72570;46.826;-71.244;2023-12-20T00:54:16;0.48;0.48;0
82815;PMS5003;72570;46.826;-71.244;2023-12-20T00:56:40;0.1;0.1;0
82815;PMS5003;72570;46.826;-71.244;2023-12-20T00:59:06;0;0;0
82815;PMS5003;72570;46.826;-71.244;2023-12-20T01:01:33;0.9;0;0
82815;PMS5003;72570;46.826;-71.244;2023-12-20T01:03:57;0.38;0.38;0
82815;PMS5003;72570;46.826;-71.244;2023-12-20T01:06:23;1.24;1.24;0.24
82815;PMS5003;72570;46.826;-71.244;2023-12-20T01:08:49;2.38;1.24;0
82815;PMS5003;72570;46.826;-71.244;2023-12-20T01:11:14;0.1;0.1;0
82815;PMS5003;72570;46.826;-71.244;2023-12-20T01:13:39;3;0;0
82815;PMS5003;72570;46.826;-71.244;2023-12-20T01:16:06;0;0;0
82815;PMS5003;72570;46.826;-71.244;2023-12-20T01:18:30;0.05;0;0
82815;PMS5003;72570;46.826;-71.244;2023-12-20T01:20:57;0;0;0
82815;PMS5003;72570;46.826;-71.244;2023-12-20T01:23:21;1;1;0
82815;PMS5003;72570;46.826;-71.244;2023-12-20T01:25:48;0.62;0.1;0
82815;PMS5003;72570;46.826;-71.244;2023-12-20T01:28:12;0;0;0
82815;PMS5003;72570;46.826;-71.244;2023-12-20T01:30:36;0;0;0
82815;PMS5003;72570;46.826;-71.244;2023-12-20T01:33:03;0.64;0;0
82815;PMS5003;72570;46.826;-71.244;2023-12-20T01:35:29;0;0;0
82815;PMS5003;72570;46.826;-71.244;2023-12-20T01:37:54;0;0;0
82815;PMS5003;72570;46.826;-71.244;2023-12-20T01:40:19;1.95;0;0
82815;PMS5003;72570;46.826;-71.244;2023-12-20T01:42:46;0;0;0
82815;PMS5003;72570;46.826;-71.244;2023-12-20T01:45:10;1;0.59;0
82815;PMS5003;72570;46.826;-71.244;2023-12-20T01:47:35;0;0;0
82815;PMS5003;72570;46.826;-71.244;2023-12-20T01:50:03;0.59;0.59;0
82815;PMS5003;72570;46.826;-71.244;2023-12-20T01:52:27;0.81;0.81;0
82815;PMS5003;72570;46.826;-71.244;2023-12-20T01:54:52;1;1;0
82815;PMS5003;72570;46.826;-71.244;2023-12-20T01:57:17;1.57;0.76;0
82815;PMS5003;72570;46.826;-71.244;2023-12-20T01:59:45;0.1;0.1;0
82815;PMS5003;72570;46.826;-71.244;2023-12-20T02:02:08;1.1;0.9;0
82815;PMS5003;72570;46.826;-71.244;2023-12-20T02:04:33;2.43;0.67;0
82815;PMS5003;72570;46.826;-71.244;2023-12-20T02:07:00;0.09;0.09;0
82815;PMS5003;72570;46.826;-71.244;2023-12-20T02:09:25;0;0;0
82815;PMS5003;72570;46.826;-71.244;2023-12-20T02:11:52;2.86;0;0
82815;PMS5003;72570;46.826;-71.244;2023-12-20T02:14:16;1.48;0.95;0.24
82815;PMS5003;72570;46.826;-71.244;2023-12-20T02:16:42;1.1;1;0
82815;PMS5003;72570;46.826;-71.244;2023-12-20T02:19:13;0.1;0.1;0
82815;PMS5003;72570;46.826;-71.244;2023-12-20T02:21:31;0;0;0
82815;PMS5003;72570;46.826;-71.244;2023-12-20T02:23:59;0.27;0.27;0
82815;PMS5003;72570;46.826;-71.244;2023-12-20T02:26:23;3.86;1.05;0
82815;PMS5003;72570;46.826;-71.244;2023-12-20T02:28:50;0.05;0.05;0
82815;PMS5003;72570;46.826;-71.244;2023-12-20T02:31:14;0.67;0;0
82815;PMS5003;72570;46.826;-71.244;2023-12-20T02:33:39;0.1;0.1;0
82815;PMS5003;72570;46.826;-71.244;2023-12-20T02:36:06;0;0;0
82815;PMS5003;72570;46.826;-71.244;2023-12-20T02:38:30;0.38;0.38;0
82815;PMS5003;72570;46.826;-71.244;2023-12-20T02:40:54;0;0;0
82815;PMS5003;72570;46.826;-71.244;2023-12-20T02:43:20;0.38;0.33;0
82815;PMS5003;72570;46.826;-71.244;2023-12-20T02:45:46;1;1;0.1
82815;PMS5003;72570;46.826;-71.244;2023-12-20T02:48:12;0.33;0.33;0
82815;PMS5003;72570;46.826;-71.244;2023-12-20T02:50:38;1.33;1;0
82815;PMS5003;72570;46.826;-71.244;2023-12-20T02:53:01;0.05;0.05;0
82815;PMS5003;72570;46.826;-71.244;2023-12-20T02:55:35;1.05;1.05;0
82815;PMS5003;72570;46.826;-71.244;2023-12-20T02:58:01;0;0;0
82815;PMS5003;72570;46.826;-71.244;2023-12-20T03:00:27;2.19;1.52;0.67
82815;PMS5003;72570;46.826;-71.244;2023-12-20T03:02:53;1.1;1.1;0
82815;PMS5003;72570;46.826;-71.244;2023-12-20T03:05:15;1.52;1.19;0
82815;PMS5003;72570;46.826;-71.244;2023-12-20T03:07:42;0.1;0.1;0
82815;PMS5003;72570;46.826;-71.244;2023-12-20T03:10:09;0.86;0.76;0
82815;PMS5003;72570;46.826;-71.244;2023-12-20T03:12:35;0;0;0
82815;PMS5003;72570;46.826;-71.244;2023-12-20T03:14:58;1.25;1;0
82815;PMS5003;72570;46.826;-71.244;2023-12-20T03:17:23;0.19;0.19;0
82815;PMS5003;72570;46.826;-71.244;2023-12-20T03:19:49;0;0;0
82815;PMS5003;72570;46.826;-71.244;2023-12-20T03:22:13;0.25;0.25;0
82815;PMS5003;72570;46.826;-71.244;2023-12-20T03:24:39;0.1;0.1;0
82815;PMS5003;72570;46.826;-71.244;2023-12-20T03:27:04;0.24;0.24;0.1
82815;PMS5003;72570;46.826;-71.244;2023-12-20T03:29:33;2.36;1;0
82815;PMS5003;72570;46.826;-71.244;2023-12-20T03:31:57;1;1;0
82815;PMS5003;72570;46.826;-71.244;2023-12-20T03:34:23;1.48;0.52;0
82815;PMS5003;72570;46.826;-71.244;2023-12-20T03:36:47;0.67;0;0
82815;PMS5003;72570;46.826;-71.244;2023-12-20T03:39:13;2.05;1;0
82815;PMS5003;72570;46.826;-71.244;2023-12-20T03:41:37;0.1;0.1;0
82815;PMS5003;72570;46.826;-71.244;2023-12-20T03:44:03;0.81;0.81;0
82815;PMS5003;72570;46.826;-71.244;2023-12-20T03:46:30;0.91;0.55;0
82815;PMS5003;72570;46.826;-71.244;2023-12-20T03:48:53;0;0;0
82815;PMS5003;72570;46.826;-71.244;2023-12-20T03:51:20;1.48;0.81;0
82815;PMS5003;72570;46.826;-71.244;2023-12-20T03:53:45;1.24;0;0
82815;PMS5003;72570;46.826;-71.244;2023-12-20T03:56:11;2.24;0;0
82815;PMS5003;72570;46.826;-71.244;2023-12-20T03:58:34;0.75;0.75;0
82815;PMS5003;72570;46.826;-71.244;2023-12-20T04:00:59;0.38;0.38;0
82815;PMS5003;72570;46.826;-71.244;2023-12-20T04:03:26;1.23;0;0
82815;PMS5003;72570;46.826;-71.244;2023-12-20T04:05:53;2.76;1.48;0
82815;PMS5003;72570;46.826;-71.244;2023-12-20T04:08:15;1.9;0.62;0
82815;PMS5003;72570;46.826;-71.244;2023-12-20T04:10:41;0.33;0.33;0
82815;PMS5003;72570;46.826;-71.244;2023-12-20T04:13:07;2.05;1.81;1.19
82815;PMS5003;72570;46.826;-71.244;2023-12-20T04:15:33;1.57;0.95;0.67
82815;PMS5003;72570;46.826;-71.244;2023-12-20T04:17:59;1;1;1
82815;PMS5003;72570;46.826;-71.244;2023-12-20T04:20:25;2.38;1.1;1
82815;PMS5003;72570;46.826;-71.244;2023-12-20T04:22:48;0.9;0.9;0
82815;PMS5003;72570;46.826;-71.244;2023-12-20T04:25:13;1.6;1.6;0
82815;PMS5003;72570;46.826;-71.244;2023-12-20T04:27:39;1.45;1;0
82815;PMS5003;72570;46.826;-71.244;2023-12-20T04:30:05;2.55;2.4;0.25
82815;PMS5003;72570;46.826;-71.244;2023-12-20T04:32:31;1.15;1.15;0.05
82815;PMS5003;72570;46.826;-71.244;2023-12-20T04:34:56;1.4;1.4;0
82815;PMS5003;72570;46.826;-71.244;2023-12-20T04:37:21;1.9;1.9;1
82815;PMS5003;72570;46.826;-71.244;2023-12-20T04:39:47;1;1;0.95
82815;PMS5003;72570;46.826;-71.244;2023-12-20T04:42:13;3.05;0.5;0
82815;PMS5003;72570;46.826;-71.244;2023-12-20T04:44:38;4;1.8;0.8
82815;PMS5003;72570;46.826;-71.244;2023-12-20T04:47:03;2.5;2.25;0.75
82815;PMS5003;72570;46.826;-71.244;2023-12-20T04:49:28;2.05;1;0.55
82815;PMS5003;72570;46.826;-71.244;2023-12-20T04:51:53;1.8;1.8;0
82815;PMS5003;72570;46.826;-71.244;2023-12-20T04:54:19;2;2;0.43
82815;PMS5003;72570;46.826;-71.244;2023-12-20T04:56:44;3;1.5;0.8
82815;PMS5003;72570;46.826;-71.244;2023-12-20T04:59:10;2.2;1;0
82815;PMS5003;72570;46.826;-71.244;2023-12-20T05:01:34;1;1;0.1
82815;PMS5003;72570;46.826;-71.244;2023-12-20T05:04:00;0.95;0.8;0.25
82815;PMS5003;72570;46.826;-71.244;2023-12-20T05:06:24;2.95;2.95;1
82815;PMS5003;72570;46.826;-71.244;2023-12-20T05:08:50;1;1;0.24
82815;PMS5003;72570;46.826;-71.244;2023-12-20T05:11:16;1.38;1.38;0.57
82815;PMS5003;72570;46.826;-71.244;2023-12-20T05:13:42;1;1;0.8
82815;PMS5003;72570;46.826;-71.244;2023-12-20T05:16:06;1.33;0.67;0.24
82815;PMS5003;72570;46.826;-71.244;2023-12-20T05:18:32;2.35;1;0
82815;PMS5003;72570;46.826;-71.244;2023-12-20T05:20:57;0.95;0.95;0
82815;PMS5003;72570;46.826;-71.244;2023-12-20T05:23:23;2;0.7;0
82815;PMS5003;72570;46.826;-71.244;2023-12-20T05:25:46;2;2;0.55
82815;PMS5003;72570;46.826;-71.244;2023-12-20T05:28:15;1;1;0.24
82815;PMS5003;72570;46.826;-71.244;2023-12-20T05:30:38;2.65;0.65;0
82815;PMS5003;72570;46.826;-71.244;2023-12-20T05:33:04;1.75;1.6;0.55
82815;PMS5003;72570;46.826;-71.244;2023-12-20T05:35:30;0;0;0
82815;PMS5003;72570;46.826;-71.244;2023-12-20T05:37:53;3.25;1.35;0.5
82815;PMS5003;72570;46.826;-71.244;2023-12-20T05:40:20;1.52;0.76;0.33
82815;PMS5003;72570;46.826;-71.244;2023-12-20T05:42:46;1;1;0.38
82815;PMS5003;72570;46.826;-71.244;2023-12-20T05:45:11;1.81;1.81;0.43
82815;PMS5003;72570;46.826;-71.244;2023-12-20T05:47:35;2.05;0.8;0.25
82815;PMS5003;72570;46.826;-71.244;2023-12-20T05:50:01;1.05;1.05;0.3
82815;PMS5003;72570;46.826;-71.244;2023-12-20T05:52:27;2.1;1.9;0
82815;PMS5003;72570;46.826;-71.244;2023-12-20T05:54:52;1.7;1.7;0.1
82815;PMS5003;72570;46.826;-71.244;2023-12-20T05:57:16;3.15;1.45;0.45
82815;PMS5003;72570;46.826;-71.244;2023-12-20T05:59:41;0.9;0.9;0.25
82815;PMS5003;72570;46.826;-71.244;2023-12-20T06:02:08;0.86;0.57;0
82815;PMS5003;72570;46.826;-71.244;2023-12-20T06:04:34;0.35;0.35;0
82815;PMS5003;72570;46.826;-71.244;2023-12-20T06:07:00;1.75;1.75;0.8
82815;PMS5003;72570;46.826;-71.244;2023-12-20T06:09:26;2.7;2.7;1
82815;PMS5003;72570;46.826;-71.244;2023-12-20T06:11:49;0.8;0.8;0.5
82815;PMS5003;72570;46.826;-71.244;2023-12-20T06:14:16;3.6;1.1;0
82815;PMS5003;72570;46.826;-71.244;2023-12-20T06:16:40;1.25;1.1;0.95
82815;PMS5003;72570;46.826;-71.244;2023-12-20T06:19:07;1.1;1.1;0.24
82815;PMS5003;72570;46.826;-71.244;2023-12-20T06:21:32;2.8;2.8;1
82815;PMS5003;72570;46.826;-71.244;2023-12-20T06:23:55;1.45;1.45;1
82815;PMS5003;72570;46.826;-71.244;2023-12-20T06:26:22;1.35;1.2;0.4
82815;PMS5003;72570;46.826;-71.244;2023-12-20T06:28:48;1;1;0.1
82815;PMS5003;72570;46.826;-71.244;2023-12-20T06:31:11;3.45;3.45;1.95
82815;PMS5003;72570;46.826;-71.244;2023-12-20T06:33:38;1.25;1.25;0.95
82815;PMS5003;72570;46.826;-71.244;2023-12-20T06:36:03;0.86;0.86;0.43
82815;PMS5003;72570;46.826;-71.244;2023-12-20T06:38:29;0.55;0.55;0
82815;PMS5003;72570;46.826;-71.244;2023-12-20T06:40:55;1.7;1;0.5
82815;PMS5003;72570;46.826;-71.244;2023-12-20T06:43:19;1.75;0.6;0
82815;PMS5003;72570;46.826;-71.244;2023-12-20T06:45:46;1.3;1.3;0.3
82815;PMS5003;72570;46.826;-71.244;2023-12-20T06:48:09;1.25;1.25;0.8
82815;PMS5003;72570;46.826;-71.244;2023-12-20T06:50:36;2.1;1.9;0
82815;PMS5003;72570;46.826;-71.244;2023-12-20T06:53:02;1.29;1;0.24
82815;PMS5003;72570;46.826;-71.244;2023-12-20T06:55:25;1.8;1.55;0.4
82815;PMS5003;72570;46.826;-71.244;2023-12-20T06:57:51;1.05;0.8;0
82815;PMS5003;72570;46.826;-71.244;2023-12-20T07:00:17;1.75;1;0
82815;PMS5003;72570;46.826;-71.244;2023-12-20T07:02:41;1.75;0.8;0.25
82815;PMS5003;72570;46.826;-71.244;2023-12-20T07:05:07;0.95;0.95;0
82815;PMS5003;72570;46.826;-71.244;2023-12-20T07:07:32;1.2;1.2;0
82815;PMS5003;72570;46.826;-71.244;2023-12-20T07:09:59;1.29;1.29;0.29
82815;PMS5003;72570;46.826;-71.244;2023-12-20T07:12:26;0.8;0.8;0
82815;PMS5003;72570;46.826;-71.244;2023-12-20T07:14:49;0;0;0
82815;PMS5003;72570;46.826;-71.244;2023-12-20T07:17:15;0.55;0.55;0
82815;PMS5003;72570;46.826;-71.244;2023-12-20T07:19:41;2.9;1;0
82815;PMS5003;72570;46.826;-71.244;2023-12-20T07:22:07;0.8;0.8;0.1
82815;PMS5003;72570;46.826;-71.244;2023-12-20T07:24:30;0.8;0.8;0
82815;PMS5003;72570;46.826;-71.244;2023-12-20T07:26:59;0.1;0.1;0
82815;PMS5003;72570;46.826;-71.244;2023-12-20T07:29:22;0;0;0
82815;PMS5003;72570;46.826;-71.244;2023-12-20T07:31:49;3.95;2;0.2
82815;PMS5003;72570;46.826;-71.244;2023-12-20T07:34:14;0.05;0.05;0
82815;PMS5003;72570;46.826;-71.244;2023-12-20T07:36:39;1;1;1
82815;PMS5003;72570;46.826;-71.244;2023-12-20T07:39:04;0.9;0.9;0
82815;PMS5003;72570;46.826;-71.244;2023-12-20T07:41:28;2.65;2;0.8
82815;PMS5003;72570;46.826;-71.244;2023-12-20T07:43:54;1.81;1.81;0
82815;PMS5003;72570;46.826;-71.244;2023-12-20T07:46:21;1.52;1;0
82815;PMS5003;72570;46.826;-71.244;2023-12-20T07:48:47;1.4;0.65;0
82815;PMS5003;72570;46.826;-71.244;2023-12-20T07:51:11;1.55;0.65;0.1
82815;PMS5003;72570;46.826;-71.244;2023-12-20T07:53:38;1.85;1.1;0.2
82815;PMS5003;72570;46.826;-71.244;2023-12-20T07:56:13;0.95;0.95;0.29
82815;PMS5003;72570;46.826;-71.244;2023-12-20T07:58:28;0.1;0.1;0
82815;PMS5003;72570;46.826;-71.244;2023-12-20T08:00:53;2.24;1.29;1
82815;PMS5003;72570;46.826;-71.244;2023-12-20T08:03:19;1.45;1.45;0.55
82815;PMS5003;72570;46.826;-71.244;2023-12-20T08:05:44;0.6;0.6;0
82815;PMS5003;72570;46.826;-71.244;2023-12-20T08:08:10;0.75;0.25;0
82815;PMS5003;72570;46.826;-71.244;2023-12-20T08:10:36;1.55;1.55;0.1
82815;PMS5003;72570;46.826;-71.244;2023-12-20T08:13:02;1;1;0.25
82815;PMS5003;72570;46.826;-71.244;2023-12-20T08:15:26;0.4;0.4;0
82815;PMS5003;72570;46.826;-71.244;2023-12-20T08:17:52;0.48;0.48;0
82815;PMS5003;72570;46.826;-71.244;2023-12-20T08:20:18;1.35;1.35;0
82815;PMS5003;72570;46.826;-71.244;2023-12-20T08:22:42;1;1;0
82815;PMS5003;72570;46.826;-71.244;2023-12-20T08:25:08;1.55;1.55;0.55
82815;PMS5003;72570;46.826;-71.244;2023-12-20T08:27:40;2.05;1.85;0.45
82815;PMS5003;72570;46.826;-71.244;2023-12-20T08:29:59;1.9;0.95;0
82815;PMS5003;72570;46.826;-71.244;2023-12-20T08:32:25;1;1;0.75
82815;PMS5003;72570;46.826;-71.244;2023-12-20T08:34:51;0.9;0.9;0
82815;PMS5003;72570;46.826;-71.244;2023-12-20T08:37:14;0.65;0.65;0
82815;PMS5003;72570;46.826;-71.244;2023-12-20T08:39:40;8.6;3.3;0
82815;PMS5003;72570;46.826;-71.244;2023-12-20T08:42:05;1;1;0
82815;PMS5003;72570;46.826;-71.244;2023-12-20T08:44:31;0.5;0.5;0
82815;PMS5003;72570;46.826;-71.244;2023-12-20T08:46:54;0.81;0.81;0
82815;PMS5003;72570;46.826;-71.244;2023-12-20T08:49:22;1;1;0
82815;PMS5003;72570;46.826;-71.244;2023-12-20T08:51:47;0.9;0.9;0
82815;PMS5003;72570;46.826;-71.244;2023-12-20T08:54:12;1.15;0.95;0
82815;PMS5003;72570;46.826;-71.244;2023-12-20T08:56:37;0.4;0.4;0
82815;PMS5003;72570;46.826;-71.244;2023-12-20T08:59:03;1;1;0
82815;PMS5003;72570;46.826;-71.244;2023-12-20T09:18:25;1.8;0.6;0
82815;PMS5003;72570;46.826;-71.244;2023-12-20T09:18:47;1.38;1.38;0
82815;PMS5003;72570;46.826;-71.244;2023-12-20T09:19:06;2.76;1;1
82815;PMS5003;72570;46.826;-71.244;2023-12-20T09:19:31;2;2;1
82815;PMS5003;72570;46.826;-71.244;2023-12-20T09:19:47;0.62;0.62;0
82815;PMS5003;72570;46.826;-71.244;2023-12-20T09:20:01;1.24;1.24;0.81
82815;PMS5003;72570;46.826;-71.244;2023-12-20T09:20:24;0;0;0
82815;PMS5003;72570;46.826;-71.244;2023-12-20T09:20:45;0.86;0.86;0
82815;PMS5003;72570;46.826;-71.244;2023-12-20T09:23:12;1.71;0.57;0
82815;PMS5003;72570;46.826;-71.244;2023-12-20T09:25:39;2.38;0.43;0
82815;PMS5003;72570;46.826;-71.244;2023-12-20T09:28:02;0.1;0.1;0
82815;PMS5003;72570;46.826;-71.244;2023-12-20T09:30:28;1.8;1.8;0
82815;PMS5003;72570;46.826;-71.244;2023-12-20T09:32:54;1.45;1.05;0.1
82815;PMS5003;72570;46.826;-71.244;2023-12-20T09:35:18;2.2;1.5;0.1
82815;PMS5003;72570;46.826;-71.244;2023-12-20T09:37:44;1.25;1.25;0.2
82815;PMS5003;72570;46.826;-71.244;2023-12-20T09:40:11;1.2;1.2;0.2
82815;PMS5003;72570;46.826;-71.244;2023-12-20T09:42:38;1;1;0.71
82815;PMS5003;72570;46.826;-71.244;2023-12-20T09:45:00;1.65;0.9;0
82815;PMS5003;72570;46.826;-71.244;2023-12-20T09:47:24;1;1;0.2
82815;PMS5003;72570;46.826;-71.244;2023-12-20T09:49:52;2.45;1.1;0.55
82815;PMS5003;72570;46.826;-71.244;2023-12-20T09:52:17;0.8;0.8;0.25
82815;PMS5003;72570;46.826;-71.244;2023-12-20T09:54:40;1.95;0.95;0.1
82815;PMS5003;72570;46.826;-71.244;2023-12-20T09:57:13;2;1.33;1
82815;PMS5003;72570;46.826;-71.244;2023-12-20T09:59:38;3.71;1.43;0.52
82815;PMS5003;72570;46.826;-71.244;2023-12-20T10:02:02;1.8;0.7;0
82815;PMS5003;72570;46.826;-71.244;2023-12-20T10:04:29;3.35;1.95;0.4
82815;PMS5003;72570;46.826;-71.244;2023-12-20T10:06:54;4.9;2;1
82815;PMS5003;72570;46.826;-71.244;2023-12-20T10:09:20;1.25;1.25;1
82815;PMS5003;72570;46.826;-71.244;2023-12-20T10:11:44;2.35;2.05;0.4
82815;PMS5003;72570;46.826;-71.244;2023-12-20T10:14:11;1.29;1.29;0.1
82815;PMS5003;72570;46.826;-71.244;2023-12-20T10:16:35;3.35;1.9;0
82815;PMS5003;72570;46.826;-71.244;2023-12-20T10:19:02;1.55;1.55;0
82815;PMS5003;72570;46.826;-71.244;2023-12-20T10:21:26;2.15;1.15;0.15
82815;PMS5003;72570;46.826;-71.244;2023-12-20T10:23:52;3.75;1.8;0.1
82815;PMS5003;72570;46.826;-71.244;2023-12-20T10:26:19;4.55;2;0.55
82815;PMS5003;72570;46.826;-71.244;2023-12-20T10:28:40;1.75;1.75;0.2
82815;PMS5003;72570;46.826;-71.244;2023-12-20T10:31:08;1.81;1;0.14
82815;PMS5003;72570;46.826;-71.244;2023-12-20T10:33:32;5.3;1;0
82815;PMS5003;72570;46.826;-71.244;2023-12-20T10:35:59;1.65;1.65;0.55
82815;PMS5003;72570;46.826;-71.244;2023-12-20T10:38:23;0.8;0.8;0.8
82815;PMS5003;72570;46.826;-71.244;2023-12-20T10:40:50;1.4;1.4;1
82815;PMS5003;72570;46.826;-71.244;2023-12-20T10:43:13;3.8;1.4;0.95
82815;PMS5003;72570;46.826;-71.244;2023-12-20T10:45:38;0.9;0.9;0.1
82815;PMS5003;72570;46.826;-71.244;2023-12-20T10:48:04;1.62;1;0.95
82815;PMS5003;72570;46.826;-71.244;2023-12-20T10:50:31;3.2;0.55;0.1
82815;PMS5003;72570;46.826;-71.244;2023-12-20T10:52:55;4.25;1;0.6
82815;PMS5003;72570;46.826;-71.244;2023-12-20T10:55:22;2;2;0.05
82815;PMS5003;72570;46.826;-71.244;2023-12-20T10:57:46;4.1;1.1;0.85
82815;PMS5003;72570;46.826;-71.244;2023-12-20T11:00:13;1.55;1.55;0.4
82815;PMS5003;72570;46.826;-71.244;2023-12-20T11:02:39;2.95;0.9;0.75
82815;PMS5003;72570;46.826;-71.244;2023-12-20T11:05:06;2.1;2;1
82815;PMS5003;72570;46.826;-71.244;2023-12-20T11:07:31;1.76;1.76;1
82815;PMS5003;72570;46.826;-71.244;2023-12-20T11:09:58;4.2;4.2;1.7
82815;PMS5003;72570;46.826;-71.244;2023-12-20T11:12:24;2.95;2.95;1.29
82815;PMS5003;72570;46.826;-71.244;2023-12-20T11:14:49;3;3;1
82815;PMS5003;72570;46.826;-71.244;2023-12-20T11:17:13;5.35;3.3;1
82815;PMS5003;72570;46.826;-71.244;2023-12-20T11:19:38;2.55;2.4;1
82815;PMS5003;72570;46.826;-71.244;2023-12-20T11:22:03;5.43;2.9;1
82815;PMS5003;72570;46.826;-71.244;2023-12-20T11:24:31;3.4;2.55;1
82815;PMS5003;72570;46.826;-71.244;2023-12-20T11:26:55;5.85;4.35;1.1
82815;PMS5003;72570;46.826;-71.244;2023-12-20T11:29:30;7.7;3.65;1
82815;PMS5003;72570;46.826;-71.244;2023-12-20T11:31:44;4.3;2.85;1.9
82815;PMS5003;72570;46.826;-71.244;2023-12-20T11:34:13;7.5;3.6;1.25
82815;PMS5003;72570;46.826;-71.244;2023-12-20T11:36:36;2.65;2;1
82815;PMS5003;72570;46.826;-71.244;2023-12-20T11:39:00;2.67;2.67;1
82815;PMS5003;72570;46.826;-71.244;2023-12-20T11:41:26;3;2;1
82815;PMS5003;72570;46.826;-71.244;2023-12-20T11:43:52;3.85;3.85;2
82815;PMS5003;72570;46.826;-71.244;2023-12-20T11:46:16;4.75;2.35;1.35
82815;PMS5003;72570;46.826;-71.244;2023-12-20T11:48:42;4;3;1.95
82815;PMS5003;72570;46.826;-71.244;2023-12-20T11:51:09;4.4;3.9;1.25
82815;PMS5003;72570;46.826;-71.244;2023-12-20T11:53:31;6.6;3.75;1.25
82815;PMS5003;72570;46.826;-71.244;2023-12-20T11:55:59;6.62;5;1.05
82815;PMS5003;72570;46.826;-71.244;2023-12-20T11:58:24;3.05;2.42;1.26
82815;PMS5003;72570;46.826;-71.244;2023-12-20T12:00:49;8.2;5.1;2.55
82815;PMS5003;72570;46.826;-71.244;2023-12-20T12:03:15;7.25;5.1;1.9
82815;PMS5003;72570;46.826;-71.244;2023-12-20T12:05:39;2;2;0.81
82815;PMS5003;72570;46.826;-71.244;2023-12-20T12:08:05;3.1;2.8;1
82815;PMS5003;72570;46.826;-71.244;2023-12-20T12:10:30;2.5;2;1
82815;PMS5003;72570;46.826;-71.244;2023-12-20T12:12:56;2.24;1.81;1
82815;PMS5003;72570;46.826;-71.244;2023-12-20T12:15:21;5.25;1.9;1
82815;PMS5003;72570;46.826;-71.244;2023-12-20T12:17:52;6.1;3.9;1.35
82815;PMS5003;72570;46.826;-71.244;2023-12-20T12:20:12;4.8;3;1.05
82815;PMS5003;72570;46.826;-71.244;2023-12-20T12:22:37;5.55;3.6;1.2
82815;PMS5003;72570;46.826;-71.244;2023-12-20T12:25:11;2.8;2.8;1
82815;PMS5003;72570;46.826;-71.244;2023-12-20T12:27:27;8.2;2.4;1.45
82815;PMS5003;72570;46.826;-71.244;2023-12-20T12:30:09;3.05;2.1;1
82815;PMS5003;72570;46.826;-71.244;2023-12-20T12:32:20;5.85;3.55;1.45
82815;PMS5003;72570;46.826;-71.244;2023-12-20T12:34:44;2.35;1.6;0.9
82815;PMS5003;72570;46.826;-71.244;2023-12-20T12:37:09;7;4.95;1.55
82815;PMS5003;72570;46.826;-71.244;2023-12-20T12:39:35;2.4;2.4;1
82815;PMS5003;72570;46.826;-71.244;2023-12-20T12:42:01;6.2;4.4;1.8
82815;PMS5003;72570;46.826;-71.244;2023-12-20T12:44:25;3.9;3.6;1.35
82815;PMS5003;72570;46.826;-71.244;2023-12-20T12:46:52;3.62;2.1;1.14
82815;PMS5003;72570;46.826;-71.244;2023-12-20T12:49:16;10.48;2.76;2.1
82815;PMS5003;72570;46.826;-71.244;2023-12-20T12:51:44;4.9;3.35;1.1
82815;PMS5003;72570;46.826;-71.244;2023-12-20T12:54:07;2.8;2.8;1
82815;PMS5003;72570;46.826;-71.244;2023-12-20T12:56:34;4.8;3.35;1
82815;PMS5003;72570;46.826;-71.244;2023-12-20T12:58:58;3.65;3.65;1.95
82815;PMS5003;72570;46.826;-71.244;2023-12-20T13:01:23;2.7;2;1
82815;PMS5003;72570;46.826;-71.244;2023-12-20T13:03:51;5.24;4.43;1.29
82815;PMS5003;72570;46.826;-71.244;2023-12-20T13:06:15;3.95;3.95;1.75
82815;PMS5003;72570;46.826;-71.244;2023-12-20T13:08:39;3;2.1;0.6
82815;PMS5003;72570;46.826;-71.244;2023-12-20T13:11:07;6.9;3.55;1.9
82815;PMS5003;72570;46.826;-71.244;2023-12-20T13:13:31;6.2;4;1.65
82815;PMS5003;72570;46.826;-71.244;2023-12-20T13:15:57;7.2;4.2;1.85
82815;PMS5003;72570;46.826;-71.244;2023-12-20T13:18:22;2.65;2.65;1
82815;PMS5003;72570;46.826;-71.244;2023-12-20T13:20:47;5.52;5.52;1
82815;PMS5003;72570;46.826;-71.244;2023-12-20T13:23:13;4.2;4.2;2
82815;PMS5003;72570;46.826;-71.244;2023-12-20T13:25:36;11.45;4.8;1.25
82815;PMS5003;72570;46.826;-71.244;2023-12-20T13:28:03;3.75;3.75;1.05
82815;PMS5003;72570;46.826;-71.244;2023-12-20T13:30:27;3.2;2.1;1.1
82815;PMS5003;72570;46.826;-71.244;2023-12-20T13:32:55;6.35;4.95;1.25
82815;PMS5003;72570;46.826;-71.244;2023-12-20T13:35:18;4.5;4.35;1.7
82815;PMS5003;72570;46.826;-71.244;2023-12-20T13:37:46;4.38;3.29;1.24
82815;PMS5003;72570;46.826;-71.244;2023-12-20T13:40:09;6;2.7;1
82815;PMS5003;72570;46.826;-71.244;2023-12-20T13:42:34;4.4;2.4;1
82815;PMS5003;72570;46.826;-71.244;2023-12-20T13:44:59;8.65;5.35;1.6
82815;PMS5003;72570;46.826;-71.244;2023-12-20T13:47:25;8.6;5.1;2
82815;PMS5003;72570;46.826;-71.244;2023-12-20T13:49:50;5.25;5.25;1.85
82815;PMS5003;72570;46.826;-71.244;2023-12-20T13:52:16;5.65;5.2;2
82815;PMS5003;72570;46.826;-71.244;2023-12-20T13:54:41;6.67;3.81;1.71
82815;PMS5003;72570;46.826;-71.244;2023-12-20T13:57:08;7.2;7.2;2
82815;PMS5003;72570;46.826;-71.244;2023-12-20T13:59:34;6.25;5.95;2
82815;PMS5003;72570;46.826;-71.244;2023-12-20T14:01:57;5.35;4.85;2.25
82815;PMS5003;72570;46.826;-71.244;2023-12-20T14:04:24;6.6;6.15;2
82815;PMS5003;72570;46.826;-71.244;2023-12-20T14:06:48;5.5;3.9;1.55
82815;PMS5003;72570;46.826;-71.244;2023-12-20T14:09:12;3;3;2
82815;PMS5003;72570;46.826;-71.244;2023-12-20T14:11:41;5.43;4.52;2.29
82815;PMS5003;72570;46.826;-71.244;2023-12-20T14:14:04;7;4.56;1.5
82815;PMS5003;72570;46.826;-71.244;2023-12-20T14:16:31;5.4;5.4;1.9
82815;PMS5003;72570;46.826;-71.244;2023-12-20T14:18:54;5.05;3.81;2.05
82815;PMS5003;72570;46.826;-71.244;2023-12-20T14:21:21;5.25;4;2.25
82815;PMS5003;72570;46.826;-71.244;2023-12-20T14:23:45;5.75;4.7;2.05
82815;PMS5003;72570;46.826;-71.244;2023-12-20T14:26:10;7.81;3.57;1.38
82815;PMS5003;72570;46.826;-71.244;2023-12-20T14:28:39;5.76;3.29;1.95
82815;PMS5003;72570;46.826;-71.244;2023-12-20T14:31:03;5.52;5.52;2.38
82815;PMS5003;72570;46.826;-71.244;2023-12-20T14:33:29;6.48;4.57;2.48
82815;PMS5003;72570;46.826;-71.244;2023-12-20T14:35:52;4.81;3.1;1.9
82815;PMS5003;72570;46.826;-71.244;2023-12-20T14:38:17;6.52;6.33;2.52